Cooter, Missouri
Current Conditions -  °F | °C
As of 2:53 PM on Thursday 20 Nov 2014 (Local Time) from KHKA Reporting Station
Clear Clear  
Wind Chill: 51°   Ceiling: Unl
Heat Index: 51°   Visibility: 8mi
Dew Point: 23°   Wind: 7mph
Humidity: 33%   Direction: 90°E
Pressure: 30.21"   Gusts: NA
Location:  36.05°N, 89.81°W
Report Text: KHKA 202053Z AUTO 09006KT 8SM CLR 11/M05 A3021 RMK AO2 SLP231 T01061050 57023 $
Loading
Personal Weather Stations






























Interactive Weather Map New forecast layout! Learn more

10-Day Weather Forecast

Advertisements
Track Severe Weather on mobile